Terminal Aerodrome Forecast
Issued by NWS Sioux Falls, SD

Home | Current Version | Previous Version | Text Only | Print | Product List | Glossary On
Versions: 1 2 3 4 5 6 7 8 9 10 11 12 13 14
000
FTUS43 KFSD 310540
TAFFSD
TAF
KFSD 310540Z 3106/0106 14009KT P6SM FEW150
     FM310900 16012KT P6SM SCT120
     FM311900 21009KT P6SM VCTS BKN030CB BKN100
     FM010200 28007KT 6SM TSRA OVC030CB
     FM010400 31006KT P6SM SCT030=

USA.gov is the U.S. government's official web portal to all federal, state and local government web resources and services.